Fay, Oklahoma
Current Conditions -  °F | °C
As of 10:15 PM on Sunday 21 Dec 2014 (Local Time) from KJWG Reporting Station
Overcast Overcast  
Wind Chill: 42°   Ceiling: 1100
Heat Index: 47°   Visibility: 10mi
Dew Point: 47°   Wind: 10mph
Humidity: 100%   Direction: 150°SSE
Pressure: 29.63"   Gusts: 17mph
Location:  35.81°N, 98.66°W
Report Text: KJWG 220415Z AUTO 15009G15KT 10SM OVC011 08/08 A2963 RMK AO2 T00830083
Loading
Personal Weather Stations






























Interactive Weather Map New forecast layout! Learn more

10-Day Weather Forecast

Advertisements
Track Severe Weather on mobile